createdAt,value
2023-02-01T00:03:50.869Z,48.97
2023-02-01T00:08:55.336Z,39.70
2023-02-01T00:13:57.893Z,25.07
2023-02-01T00:19:05.106Z,47.63
2023-02-01T00:24:09.653Z,50.37
2023-02-01T00:29:19.417Z,62.73
2023-02-01T00:34:21.373Z,53.90
2023-02-01T00:39:25.170Z,33.63
2023-02-01T00:44:29.450Z,41.97
2023-02-01T00:49:36.549Z,50.10
2023-02-01T00:54:40.308Z,53.50
2023-02-01T00:59:44.176Z,53.63
2023-02-01T01:04:45.935Z,47.03
2023-02-01T01:09:52.320Z,49.77
2023-02-01T01:14:55.023Z,50.50
2023-02-01T01:20:00.130Z,44.87
2023-02-01T01:25:04.177Z,43.20
2023-02-01T01:30:06.474Z,40.37
2023-02-01T01:35:11.077Z,52.47
2023-02-01T01:40:15.391Z,50.47
2023-02-01T01:45:30.408Z,53.47
2023-02-01T01:50:53.405Z,67.23
2023-02-01T01:55:57.062Z,56.60
2023-02-01T02:00:58.853Z,53.27
2023-02-01T02:06:15.270Z,27.27
2023-02-01T02:11:20.833Z,25.17
2023-02-01T02:16:43.950Z,23.93
2023-02-01T02:22:24.117Z,68.50
2023-02-01T02:27:49.315Z,53.60
2023-02-01T02:33:12.864Z,55.87
2023-02-01T02:38:33.701Z,37.40
2023-02-01T02:44:05.905Z,39.80
2023-02-01T02:49:16.280Z,22.17
2023-02-01T02:54:47.612Z,36.90
2023-02-01T03:00:10.135Z,25.17
2023-02-01T03:10:27.987Z,38.63
2023-02-01T03:15:58.622Z,39.93
2023-02-01T03:21:02.350Z,36.70
2023-02-01T03:26:07.403Z,38.73
2023-02-01T03:31:09.357Z,55.37
2023-02-01T03:36:27.455Z,39.37
2023-02-01T03:41:40.156Z,26.10
2023-02-01T03:47:05.337Z,41.30
2023-02-01T03:52:14.580Z,32.93
2023-02-01T03:57:24.977Z,38.33
2023-02-01T04:02:29.887Z,43.60
2023-02-01T04:07:33.943Z,57.77
2023-02-01T04:12:36.819Z,40.97
2023-02-01T04:17:39.553Z,30.60
2023-02-01T04:22:44.529Z,55.20
2023-02-01T04:27:46.225Z,57.10
2023-02-01T04:32:52.534Z,47.47
2023-02-01T04:37:54.184Z,30.87
2023-02-01T04:43:00.720Z,34.60
2023-02-01T04:48:02.520Z,21.90
2023-02-01T04:53:05.629Z,16.10
2023-02-01T04:58:07.317Z,52.23
2023-02-01T05:03:11.114Z,48.00
2023-02-01T05:08:17.639Z,35.57
2023-02-01T05:13:40.634Z,49.87
2023-02-01T05:18:42.368Z,33.23
2023-02-01T05:24:05.319Z,27.63
2023-02-01T05:29:07.904Z,18.50
2023-02-01T05:34:17.229Z,28.90
2023-02-01T05:39:21.506Z,29.80
2023-02-01T05:44:23.176Z,45.60
2023-02-01T05:49:24.918Z,44.33
2023-02-01T05:54:26.570Z,49.00
2023-02-01T05:59:31.359Z,51.40
2023-02-01T06:04:33.697Z,56.60
2023-02-01T06:09:37.972Z,48.20
2023-02-01T06:14:44.608Z,31.53
2023-02-01T06:19:49.464Z,42.40
2023-02-01T06:24:51.261Z,28.90
2023-02-01T06:29:56.091Z,46.43
2023-02-01T06:35:02.688Z,47.83
2023-02-01T06:40:05.736Z,44.23
2023-02-01T06:45:11.725Z,34.17
2023-02-01T06:50:21.657Z,34.23
2023-02-01T06:55:23.580Z,62.60
2023-02-01T07:00:32.500Z,60.20
2023-02-01T07:05:36.224Z,54.83
2023-02-01T07:10:40.375Z,45.57
2023-02-01T07:15:47.842Z,47.13
2023-02-01T07:20:53.829Z,42.10
2023-02-01T07:26:00.728Z,44.73
2023-02-01T07:31:06.494Z,39.67
2023-02-01T07:36:13.892Z,26.63
2023-02-01T07:41:18.937Z,25.80
2023-02-01T07:46:20.769Z,34.80
2023-02-01T07:51:23.766Z,41.03
2023-02-01T07:56:26.484Z,30.77
2023-02-01T08:01:30.508Z,39.40
2023-02-01T08:06:33.707Z,31.83
2023-02-01T08:11:38.966Z,41.03
2023-02-01T08:16:45.640Z,40.53
2023-02-01T08:21:49.734Z,37.77
2023-02-01T08:26:51.895Z,38.73
2023-02-01T08:31:58.229Z,26.57
2023-02-01T08:37:00.937Z,31.27
2023-02-01T08:42:23.250Z,32.37
2023-02-01T08:47:25.071Z,25.97
2023-02-01T08:52:30.717Z,21.60
2023-02-01T08:57:38.704Z,40.50
2023-02-01T09:02:44.369Z,39.30
2023-02-01T09:07:49.103Z,40.97
2023-02-01T09:12:51.029Z,30.33
2023-02-01T09:17:53.209Z,30.70
2023-02-01T09:22:58.494Z,34.77
2023-02-01T09:28:02.306Z,35.33
2023-02-01T09:33:06.475Z,24.10
2023-02-01T09:38:11.263Z,27.63
2023-02-01T09:43:49.386Z,28.27
2023-02-01T09:48:56.029Z,31.47
2023-02-01T09:54:12.396Z,29.33
2023-02-01T09:59:26.217Z,35.90
2023-02-01T10:04:28.082Z,35.30
2023-02-01T10:09:58.142Z,34.93
2023-02-01T10:15:34.261Z,25.60
2023-02-01T10:20:43.688Z,31.87
2023-02-01T10:25:52.898Z,40.87
2023-02-01T10:30:59.645Z,26.37
2023-02-01T10:36:15.082Z,30.50
2023-02-01T10:41:22.399Z,22.67
2023-02-01T10:46:29.749Z,23.77
2023-02-01T10:51:44.619Z,21.70
2023-02-01T10:56:49.106Z,20.97
2023-02-01T11:01:51.715Z,9.37
2023-02-01T11:07:19.523Z,4.37
2023-02-01T11:12:39.892Z,14.80
2023-02-01T11:17:46.714Z,55.60
2023-02-01T11:22:55.886Z,6.67
2023-02-01T11:28:02.777Z,5.17
2023-02-01T11:33:07.242Z,7.17
2023-02-01T11:38:40.347Z,4.67
2023-02-01T11:43:59.550Z,8.13
2023-02-01T11:49:25.179Z,5.67
2023-02-01T11:54:42.494Z,7.93
2023-02-01T12:00:05.234Z,9.70
2023-02-01T12:05:29.075Z,5.67
2023-02-01T12:10:43.879Z,10.90
2023-02-01T12:16:31.198Z,10.13
2023-02-01T12:21:47.300Z,6.47
2023-02-01T12:27:18.899Z,4.40
2023-02-01T12:32:38.050Z,8.57
2023-02-01T12:37:52.212Z,13.47
2023-02-01T12:43:02.675Z,20.23
2023-02-01T12:48:31.733Z,6.73
2023-02-01T12:53:48.558Z,5.63
2023-02-01T12:58:55.714Z,14.13
2023-02-01T13:04:07.027Z,14.53
2023-02-01T13:09:08.787Z,17.43
2023-02-01T13:14:38.687Z,18.73
2023-02-01T13:20:08.450Z,22.77
2023-02-01T13:25:19.130Z,19.83
2023-02-01T13:30:56.796Z,21.03
2023-02-01T13:36:05.819Z,24.40
2023-02-01T13:41:28.979Z,20.87
2023-02-01T13:46:31.250Z,21.03
2023-02-01T13:51:41.902Z,24.17
2023-02-01T13:56:46.146Z,21.27
2023-02-01T14:01:48.534Z,26.07
2023-02-01T14:06:56.384Z,27.30
2023-02-01T14:12:40.132Z,30.43
2023-02-01T14:17:42.346Z,33.43
2023-02-01T14:22:48.152Z,20.83
2023-02-01T14:27:56.962Z,38.67
2023-02-01T14:33:01.029Z,35.53
2023-02-01T14:38:12.215Z,27.30
2023-02-01T14:43:23.655Z,33.50
2023-02-01T14:48:37.708Z,22.07
2023-02-01T14:53:43.967Z,25.13
2023-02-01T14:59:10.811Z,22.83
2023-02-01T15:04:19.567Z,25.97
2023-02-01T15:09:36.018Z,32.90
2023-02-01T15:14:46.307Z,29.37
2023-02-01T15:19:58.542Z,42.90
2023-02-01T15:25:04.221Z,37.63
2023-02-01T15:30:08.350Z,38.93
2023-02-01T15:35:37.228Z,44.33
2023-02-01T15:40:39.061Z,36.27
2023-02-01T15:45:41.133Z,27.80
2023-02-01T15:50:42.960Z,29.20
2023-02-01T15:55:48.712Z,41.67
2023-02-01T16:01:05.701Z,36.03
2023-02-01T16:06:10.407Z,48.85
2023-02-01T16:11:33.411Z,52.97
2023-02-01T16:16:37.631Z,27.53
2023-02-01T16:21:39.521Z,29.13
2023-02-01T16:26:46.249Z,35.63
2023-02-01T16:31:53.356Z,48.10
2023-02-01T16:36:58.334Z,53.57
2023-02-01T16:42:01.418Z,44.47
2023-02-01T16:47:03.997Z,40.57
2023-02-01T16:52:10.063Z,37.27
2023-02-01T16:57:15.727Z,33.27
2023-02-01T17:02:23.307Z,31.97
2023-02-01T17:07:25.040Z,30.90
2023-02-01T17:12:30.859Z,43.13
2023-02-01T17:17:39.244Z,53.03
2023-02-01T17:22:41.276Z,32.20
2023-02-01T17:27:44.109Z,44.77
2023-02-01T17:32:48.353Z,42.80
2023-02-01T17:37:51.523Z,33.27
2023-02-01T17:42:57.864Z,39.90
2023-02-01T17:48:07.380Z,33.90
2023-02-01T17:53:16.729Z,38.10
2023-02-01T17:58:19.956Z,44.55
2023-02-01T18:03:30.355Z,45.33
2023-02-01T18:08:35.454Z,25.73
2023-02-01T18:13:40.701Z,43.93
2023-02-01T18:18:50.117Z,33.80
2023-02-01T18:24:02.757Z,14.67
2023-02-01T18:29:06.922Z,41.87
2023-02-01T18:34:10.227Z,45.10
2023-02-01T18:39:12.020Z,31.07
2023-02-01T18:44:15.455Z,44.37
2023-02-01T18:49:20.312Z,19.30
2023-02-01T18:54:24.558Z,33.87
2023-02-01T18:59:28.502Z,42.27
2023-02-01T19:04:30.362Z,40.93
2023-02-01T19:09:40.351Z,19.00
2023-02-01T19:14:44.620Z,26.70
2023-02-01T19:19:50.570Z,33.80
2023-02-01T19:24:54.562Z,31.07
2023-02-01T19:30:02.460Z,31.47
2023-02-01T19:35:08.139Z,34.27
2023-02-01T19:40:14.488Z,41.57
2023-02-01T19:45:16.488Z,39.17
2023-02-01T19:50:20.720Z,39.10
2023-02-01T19:55:23.022Z,36.93
2023-02-01T20:00:26.521Z,44.47
2023-02-01T20:05:32.916Z,38.90
2023-02-01T20:10:37.039Z,45.80
2023-02-01T20:15:43.878Z,34.60
2023-02-01T20:20:48.131Z,28.73
2023-02-01T20:25:53.162Z,33.00
2023-02-01T20:30:59.800Z,36.07
2023-02-01T20:36:01.633Z,22.77
2023-02-01T20:41:11.403Z,35.57
2023-02-01T20:46:14.964Z,35.40
2023-02-01T20:51:18.881Z,37.33
2023-02-01T20:56:20.708Z,42.80
2023-02-01T21:01:24.970Z,40.83
2023-02-01T21:06:29.083Z,32.17
2023-02-01T21:11:33.233Z,40.23
2023-02-01T21:16:37.534Z,35.27
2023-02-01T21:21:42.089Z,34.53
2023-02-01T21:26:46.134Z,42.57
2023-02-01T21:31:54.750Z,31.73
2023-02-01T21:36:59.357Z,45.47
2023-02-01T21:42:17.061Z,47.97
2023-02-01T21:47:26.143Z,43.77
2023-02-01T21:52:31.064Z,42.03
2023-02-01T21:57:33.161Z,50.53
2023-02-01T22:02:37.751Z,34.60
2023-02-01T22:07:42.887Z,36.10
2023-02-01T22:12:47.702Z,41.70
2023-02-01T22:17:53.974Z,38.77
2023-02-01T22:22:58.169Z,35.20
2023-02-01T22:28:30.777Z,48.00
2023-02-01T22:33:24.294Z,38.97
2023-02-01T22:38:27.069Z,40.83
2023-02-01T22:43:29.111Z,41.47
2023-02-01T22:48:31.778Z,23.87
2023-02-01T22:53:38.034Z,37.23
2023-02-01T22:58:45.546Z,29.13
2023-02-01T23:03:49.684Z,25.17
2023-02-01T23:09:00.923Z,36.67
2023-02-01T23:14:04.598Z,25.03
2023-02-01T23:19:06.336Z,38.60
2023-02-01T23:24:11.179Z,47.17
2023-02-01T23:29:17.332Z,40.73
2023-02-01T23:34:21.304Z,49.97
2023-02-01T23:39:25.334Z,41.80
2023-02-01T23:44:29.651Z,56.17
2023-02-01T23:49:31.358Z,47.43
2023-02-01T23:54:33.258Z,44.97
2023-02-01T23:59:38.479Z,40.13
